createdAt,value
2023-01-11T00:02:31.119Z,10.08
2023-01-11T00:05:14.475Z,10.31
2023-01-11T00:08:04.205Z,10.16
2023-01-11T00:10:46.478Z,10.19
2023-01-11T00:13:40.142Z,10.22
2023-01-11T00:16:22.445Z,10.26
2023-01-11T00:19:11.189Z,10.34
2023-01-11T00:21:57.513Z,10.38
2023-01-11T00:24:46.192Z,10.30
2023-01-11T00:27:28.418Z,10.19
2023-01-11T00:30:17.207Z,10.19
2023-01-11T00:33:14.101Z,10.41
2023-01-11T00:36:03.418Z,10.64
2023-01-11T00:38:51.595Z,10.45
2023-01-11T00:41:57.918Z,10.40
2023-01-11T00:44:59.240Z,10.35
2023-01-11T00:47:59.617Z,10.49
2023-01-11T00:50:47.053Z,10.31
2023-01-11T00:53:35.427Z,10.43
2023-01-11T00:56:17.154Z,10.27
2023-01-11T00:59:06.155Z,10.48
2023-01-11T01:01:48.493Z,10.39
2023-01-11T01:04:38.047Z,10.32
2023-01-11T01:07:20.598Z,10.20
2023-01-11T01:10:09.046Z,10.11
2023-01-11T01:13:16.056Z,10.06
2023-01-11T01:16:06.159Z,10.17
2023-01-11T01:18:55.045Z,10.02
2023-01-11T01:21:44.456Z,10.15
2023-01-11T01:24:27.193Z,10.25
2023-01-11T01:27:18.752Z,10.13
2023-01-11T01:30:07.043Z,10.09
2023-01-11T01:32:49.433Z,10.19
2023-01-11T01:35:38.163Z,10.01
2023-01-11T01:38:20.454Z,10.01
2023-01-11T01:41:09.081Z,10.49
2023-01-11T01:44:01.461Z,10.20
2023-01-11T01:46:50.045Z,10.28
2023-01-11T01:49:39.170Z,10.09
2023-01-11T01:52:28.164Z,10.00
2023-01-11T01:55:24.128Z,10.09
2023-01-11T01:58:18.458Z,10.12
2023-01-11T02:01:00.107Z,10.12
2023-01-11T02:03:49.430Z,10.19
2023-01-11T02:06:32.134Z,10.35
2023-01-11T02:09:39.177Z,10.23
2023-01-11T02:12:30.372Z,10.49
2023-01-11T02:15:20.134Z,10.27
2023-01-11T02:18:09.260Z,10.01
2023-01-11T02:21:21.427Z,10.02
2023-01-11T02:24:19.172Z,9.96
2023-01-11T02:27:32.438Z,10.12
2023-01-11T02:30:29.175Z,9.83
2023-01-11T02:33:32.345Z,9.93
2023-01-11T02:36:27.134Z,9.89
2023-01-11T02:39:23.478Z,9.91
2023-01-11T02:43:00.517Z,9.98
2023-01-11T02:46:06.466Z,9.93
2023-01-11T02:48:48.230Z,9.77
2023-01-11T02:51:56.427Z,9.72
2023-01-11T02:54:41.169Z,9.80
2023-01-11T02:57:33.404Z,9.89
2023-01-11T03:00:17.236Z,9.97
2023-01-11T03:03:17.440Z,10.02
2023-01-11T03:06:14.192Z,9.95
2023-01-11T03:09:19.026Z,9.93
2023-01-11T03:12:26.080Z,10.09
2023-01-11T03:15:49.173Z,10.14
2023-01-11T03:18:53.430Z,10.15
2023-01-11T03:21:53.209Z,9.96
2023-01-11T03:24:46.945Z,9.90
2023-01-11T03:27:42.116Z,9.96
2023-01-11T03:30:59.183Z,10.25
2023-01-11T03:33:50.431Z,10.01
2023-01-11T03:36:42.168Z,9.95
2023-01-11T03:39:56.413Z,10.00
2023-01-11T03:42:42.168Z,9.88
2023-01-11T03:45:32.475Z,9.95
2023-01-11T03:48:18.171Z,10.11
2023-01-11T03:51:10.386Z,10.20
2023-01-11T03:53:56.155Z,10.25
2023-01-11T03:56:57.376Z,10.36
2023-01-11T03:59:40.159Z,10.14
2023-01-11T04:02:41.472Z,10.24
2023-01-11T04:05:24.133Z,10.45
2023-01-11T04:08:13.441Z,10.81
2023-01-11T04:10:55.081Z,10.55
2023-01-11T04:13:43.481Z,10.31
2023-01-11T04:16:25.159Z,10.29
2023-01-11T04:19:14.158Z,10.35
2023-01-11T04:21:56.377Z,10.34
2023-01-11T04:24:45.170Z,10.28
2023-01-11T04:27:27.401Z,10.38
2023-01-11T04:30:17.081Z,10.25
2023-01-11T04:33:00.194Z,10.18
2023-01-11T04:35:50.200Z,10.26
2023-01-11T04:38:32.911Z,10.28
2023-01-11T04:41:40.211Z,10.31
2023-01-11T04:44:22.447Z,10.41
2023-01-11T04:47:11.127Z,10.28
2023-01-11T04:49:53.390Z,10.29
2023-01-11T04:52:42.155Z,10.40
2023-01-11T04:55:24.555Z,10.44
2023-01-11T04:58:13.167Z,10.38
2023-01-11T05:00:55.364Z,10.45
2023-01-11T05:03:44.183Z,10.61
2023-01-11T05:06:26.883Z,10.56
2023-01-11T05:09:22.065Z,10.59
2023-01-11T05:12:11.112Z,10.48
2023-01-11T05:15:00.571Z,10.65
2023-01-11T05:17:43.147Z,10.68
2023-01-11T05:20:25.493Z,10.69
2023-01-11T05:23:14.082Z,10.79
2023-01-11T05:26:03.063Z,10.89
2023-01-11T05:28:45.363Z,10.74
2023-01-11T05:31:34.411Z,11.06
2023-01-11T05:34:27.172Z,11.10
2023-01-11T05:37:09.272Z,10.89
2023-01-11T05:39:58.074Z,10.95
2023-01-11T05:42:46.405Z,11.09
2023-01-11T05:45:37.109Z,11.01
2023-01-11T05:48:19.977Z,11.16
2023-01-11T05:51:11.176Z,11.24
2023-01-11T05:54:01.118Z,11.16
2023-01-11T05:56:46.843Z,11.55
2023-01-11T05:59:36.093Z,11.40
2023-01-11T06:02:18.609Z,11.35
2023-01-11T06:05:08.113Z,11.42
2023-01-11T06:07:57.099Z,11.46
2023-01-11T06:10:47.250Z,11.71
2023-01-11T06:13:35.132Z,11.57
2023-01-11T06:16:25.504Z,11.70
2023-01-11T06:19:07.072Z,11.79
2023-01-11T06:21:49.298Z,11.68
2023-01-11T06:24:38.172Z,11.77
2023-01-11T06:27:26.364Z,11.96
2023-01-11T06:30:22.171Z,12.08
2023-01-11T06:33:11.438Z,11.99
2023-01-11T06:35:54.145Z,12.29
2023-01-11T06:38:43.553Z,12.33
2023-01-11T06:41:25.016Z,12.13
2023-01-11T06:44:14.089Z,12.13
2023-01-11T06:46:56.440Z,12.21
2023-01-11T06:49:45.186Z,12.16
2023-01-11T06:52:27.399Z,12.43
2023-01-11T06:55:16.120Z,12.26
2023-01-11T06:57:58.504Z,12.34
2023-01-11T07:00:47.114Z,12.52
2023-01-11T07:03:29.500Z,12.40
2023-01-11T07:06:18.065Z,12.55
2023-01-11T07:09:00.473Z,12.70
2023-01-11T07:11:49.040Z,12.70
2023-01-11T07:14:31.352Z,12.82
2023-01-11T07:17:20.428Z,12.90
2023-01-11T07:20:02.457Z,12.68
2023-01-11T07:22:51.160Z,12.77
2023-01-11T07:25:34.361Z,12.90
2023-01-11T07:28:23.098Z,12.78
2023-01-11T07:31:11.417Z,12.85
2023-01-11T07:33:53.190Z,12.92
2023-01-11T07:36:41.367Z,12.97
2023-01-11T07:39:29.124Z,12.95
2023-01-11T07:42:41.520Z,12.93
2023-01-11T07:45:24.228Z,12.97
2023-01-11T07:48:11.585Z,13.25
2023-01-11T07:51:00.173Z,12.96
2023-01-11T07:53:48.408Z,13.29
2023-01-11T07:56:30.090Z,13.14
2023-01-11T07:59:12.795Z,12.89
2023-01-11T08:02:02.086Z,12.81
2023-01-11T08:04:50.450Z,12.94
2023-01-11T08:07:33.195Z,12.90
2023-01-11T08:10:22.309Z,12.92
2023-01-11T08:13:23.146Z,12.90
2023-01-11T08:16:12.211Z,12.93
2023-01-11T08:18:54.550Z,12.97
2023-01-11T08:21:43.081Z,13.04
2023-01-11T08:24:25.440Z,13.19
2023-01-11T08:27:14.157Z,13.32
2023-01-11T08:30:09.377Z,13.20
2023-01-11T08:32:58.437Z,13.20
2023-01-11T08:35:47.104Z,13.12
2023-01-11T08:38:35.359Z,13.11
2023-01-11T08:41:22.133Z,13.19
2023-01-11T08:44:11.706Z,13.17
2023-01-11T08:46:55.161Z,13.23
2023-01-11T08:49:44.103Z,13.26
2023-01-11T08:52:27.056Z,13.33
2023-01-11T08:55:16.367Z,13.24
2023-01-11T08:57:58.096Z,13.50
2023-01-11T09:00:46.306Z,13.79
2023-01-11T09:03:29.185Z,13.64
2023-01-11T09:06:17.490Z,13.40
2023-01-11T09:09:00.085Z,13.47
2023-01-11T09:12:09.045Z,13.66
2023-01-11T09:14:51.500Z,13.58
2023-01-11T09:17:41.164Z,13.60
2023-01-11T09:20:23.543Z,13.59
2023-01-11T09:23:12.174Z,13.62
2023-01-11T09:25:54.368Z,13.87
2023-01-11T09:28:43.027Z,13.70
2023-01-11T09:31:32.464Z,13.76
2023-01-11T09:34:16.105Z,13.98
2023-01-11T09:37:01.081Z,13.92
2023-01-11T09:39:50.015Z,14.02
2023-01-11T09:42:44.483Z,13.98
2023-01-11T09:45:42.134Z,13.98
2023-01-11T09:48:53.610Z,13.97
2023-01-11T09:51:43.143Z,14.17
2023-01-11T09:54:28.443Z,14.18
2023-01-11T09:57:39.133Z,14.14
2023-01-11T10:00:41.330Z,14.19
2023-01-11T10:03:59.093Z,14.13
2023-01-11T10:07:41.147Z,14.45
2023-01-11T10:18:25.385Z,14.30
2023-01-11T10:18:41.377Z,14.34
2023-01-11T10:21:03.097Z,14.54
2023-01-11T10:24:13.195Z,14.48
2023-01-11T10:26:58.140Z,14.48
2023-01-11T10:30:19.994Z,14.24
2023-01-11T10:33:50.025Z,14.18
2023-01-11T10:37:32.128Z,14.05
2023-01-11T10:40:41.533Z,14.08
2023-01-11T10:43:48.086Z,14.06
2023-01-11T10:46:34.632Z,14.08
2023-01-11T10:49:34.616Z,14.03
2023-01-11T10:52:41.474Z,14.09
2023-01-11T10:55:39.090Z,14.23
2023-01-11T10:58:58.133Z,14.21
2023-01-11T11:02:03.601Z,14.09
2023-01-11T11:05:15.041Z,14.10
2023-01-11T11:08:20.050Z,14.07
2023-01-11T11:11:14.079Z,13.94
2023-01-11T11:14:22.946Z,14.06
2023-01-11T11:17:45.105Z,13.94
2023-01-11T11:20:39.959Z,13.93
2023-01-11T11:23:34.133Z,13.98
2023-01-11T11:26:22.268Z,14.12
2023-01-11T11:29:10.189Z,14.17
2023-01-11T11:31:59.470Z,13.96
2023-01-11T11:34:42.069Z,13.74
2023-01-11T11:37:34.991Z,13.59
2023-01-11T11:40:43.976Z,13.98
2023-01-11T11:43:28.584Z,14.14
2023-01-11T11:46:27.041Z,13.88
2023-01-11T11:49:18.216Z,13.89
2023-01-11T11:52:08.116Z,13.78
2023-01-11T11:55:00.248Z,13.54
2023-01-11T11:57:56.070Z,13.46
2023-01-11T12:00:56.956Z,13.65
2023-01-11T12:03:40.936Z,13.58
2023-01-11T12:06:26.841Z,13.50
2023-01-11T12:09:17.992Z,13.44
2023-01-11T12:12:07.390Z,13.33
2023-01-11T12:14:48.923Z,13.05
2023-01-11T12:17:38.379Z,13.17
2023-01-11T12:20:36.061Z,13.10
2023-01-11T12:23:30.645Z,12.94
2023-01-11T12:26:27.158Z,12.90
2023-01-11T12:29:44.023Z,12.86
2023-01-11T12:32:54.085Z,12.99
2023-01-11T12:35:48.074Z,12.89
2023-01-11T12:38:46.405Z,12.91
2023-01-11T12:41:29.116Z,12.85
2023-01-11T12:44:26.023Z,13.17
2023-01-11T12:47:51.121Z,13.20
2023-01-11T12:50:46.499Z,13.71
2023-01-11T12:53:34.160Z,13.52
2023-01-11T12:57:05.308Z,13.79
2023-01-11T13:00:23.936Z,13.69
2023-01-11T13:03:33.651Z,13.50
2023-01-11T13:06:31.073Z,13.10
2023-01-11T13:09:47.092Z,13.15
2023-01-11T13:12:50.039Z,13.21
2023-01-11T13:15:53.062Z,12.99
2023-01-11T13:18:50.980Z,13.00
2023-01-11T13:21:52.110Z,12.78
2023-01-11T13:24:38.506Z,12.78
2023-01-11T13:27:31.033Z,12.75
2023-01-11T13:30:31.999Z,12.80
2023-01-11T13:33:27.990Z,12.65
2023-01-11T13:39:26.954Z,12.57
2023-01-11T13:42:20.299Z,12.70
2023-01-11T13:45:34.066Z,12.74
2023-01-11T13:48:39.964Z,12.81
2023-01-11T13:51:54.960Z,12.71
2023-01-11T13:54:54.069Z,12.67
2023-01-11T13:58:00.285Z,12.57
2023-01-11T14:00:48.962Z,12.54
2023-01-11T14:03:49.693Z,12.53
2023-01-11T14:06:52.910Z,12.60
2023-01-11T14:09:43.784Z,12.48
2023-01-11T14:12:50.894Z,12.50
2023-01-11T14:15:42.397Z,12.72
2023-01-11T14:18:45.127Z,12.67
2023-01-11T14:21:38.460Z,12.65
2023-01-11T14:24:29.009Z,12.60
2023-01-11T14:27:16.953Z,12.34
2023-01-11T14:30:17.920Z,12.25
2023-01-11T14:33:39.989Z,12.35
2023-01-11T14:36:53.605Z,12.15
2023-01-11T14:40:19.122Z,12.29
2023-01-11T14:43:16.503Z,12.14
2023-01-11T14:46:04.993Z,12.19
2023-01-11T14:49:10.599Z,12.15
2023-01-11T14:51:59.899Z,12.22
2023-01-11T14:54:55.463Z,11.96
2023-01-11T14:57:49.004Z,12.00
2023-01-11T15:00:38.007Z,12.14
2023-01-11T15:03:29.343Z,12.02
2023-01-11T15:06:25.046Z,12.03
2023-01-11T15:09:51.908Z,12.12
2023-01-11T15:12:43.150Z,12.11
2023-01-11T15:15:54.095Z,12.07
2023-01-11T15:18:38.018Z,12.00
2023-01-11T15:21:31.319Z,12.03
2023-01-11T15:24:14.066Z,12.10
2023-01-11T15:27:05.506Z,12.12
2023-01-11T15:29:53.927Z,12.18
2023-01-11T15:32:44.966Z,12.11
2023-01-11T15:35:40.064Z,12.02
2023-01-11T15:39:00.108Z,12.22
2023-01-11T15:42:05.381Z,12.11
2023-01-11T15:45:30.995Z,12.12
2023-01-11T15:48:34.370Z,12.13
2023-01-11T15:52:00.089Z,11.93
2023-01-11T15:55:15.499Z,12.11
2023-01-11T15:58:11.958Z,12.08
2023-01-11T16:01:42.315Z,12.06
2023-01-11T16:05:13.944Z,12.05
2023-01-11T16:08:29.052Z,12.00
2023-01-11T16:11:45.447Z,12.05
2023-01-11T16:15:02.930Z,11.98
2023-01-11T16:17:54.419Z,12.16
2023-01-11T16:20:36.996Z,12.00
2023-01-11T16:23:22.258Z,12.00
2023-01-11T16:26:12.873Z,12.07
2023-01-11T16:28:59.494Z,11.93
2023-01-11T16:32:07.887Z,11.95
2023-01-11T16:34:57.371Z,12.01
2023-01-11T16:37:56.911Z,12.17
2023-01-11T16:40:49.918Z,12.09
2023-01-11T16:43:37.457Z,11.97
2023-01-11T16:47:02.979Z,11.91
2023-01-11T16:49:49.951Z,12.03
2023-01-11T16:52:46.013Z,11.80
2023-01-11T16:55:37.983Z,11.84
2023-01-11T16:58:38.100Z,11.74
2023-01-11T17:01:23.415Z,11.67
2023-01-11T17:04:19.023Z,11.85
2023-01-11T17:07:08.023Z,11.84
2023-01-11T17:09:50.502Z,11.82
2023-01-11T17:12:41.023Z,11.79
2023-01-11T17:15:44.883Z,11.79
2023-01-11T17:18:33.996Z,11.74
2023-01-11T17:21:20.840Z,11.84
2023-01-11T17:24:15.926Z,11.90
2023-01-11T17:27:08.948Z,11.84
2023-01-11T17:29:58.975Z,11.82
2023-01-11T17:33:00.079Z,12.08
2023-01-11T17:35:50.430Z,11.90
2023-01-11T17:38:34.073Z,11.69
2023-01-11T17:41:38.354Z,11.79
2023-01-11T17:44:54.028Z,11.85
2023-01-11T17:47:38.799Z,11.81
2023-01-11T17:50:45.161Z,11.88
2023-01-11T17:53:38.555Z,11.90
2023-01-11T17:56:55.921Z,11.69
2023-01-11T17:59:38.400Z,11.70
2023-01-11T18:02:31.031Z,11.73
2023-01-11T18:05:19.338Z,11.81
2023-01-11T18:08:16.932Z,11.58
2023-01-11T18:11:05.355Z,11.83
2023-01-11T18:13:47.991Z,11.87
2023-01-11T18:16:30.610Z,11.93
2023-01-11T18:19:38.919Z,11.88
2023-01-11T18:22:51.350Z,11.98
2023-01-11T18:25:42.525Z,11.86
2023-01-11T18:28:34.014Z,11.99
2023-01-11T18:31:22.925Z,11.83
2023-01-11T18:34:05.898Z,11.93
2023-01-11T18:36:48.294Z,11.77
2023-01-11T18:39:36.986Z,11.70
2023-01-11T18:42:24.232Z,11.69
2023-01-11T18:45:13.007Z,11.58
2023-01-11T18:47:55.394Z,11.60
2023-01-11T18:50:44.027Z,11.51
2023-01-11T18:53:26.293Z,11.34
2023-01-11T18:56:14.985Z,11.56
2023-01-11T18:58:57.369Z,11.56
2023-01-11T19:01:58.650Z,11.48
2023-01-11T19:04:50.051Z,11.55
2023-01-11T19:07:34.486Z,11.51
2023-01-11T19:10:26.874Z,11.61
2023-01-11T19:13:15.990Z,11.56
2023-01-11T19:16:04.404Z,11.49
2023-01-11T19:18:46.984Z,11.51
2023-01-11T19:21:36.330Z,11.53
2023-01-11T19:24:18.924Z,11.40
2023-01-11T19:27:01.471Z,11.54
2023-01-11T19:29:50.084Z,11.48
2023-01-11T19:32:39.249Z,11.63
2023-01-11T19:35:21.900Z,11.80
2023-01-11T19:38:11.057Z,11.63
2023-01-11T19:40:54.509Z,11.69
2023-01-11T19:43:43.987Z,11.40
2023-01-11T19:46:32.100Z,11.52
2023-01-11T19:49:21.006Z,11.44
2023-01-11T19:52:03.357Z,11.31
2023-01-11T19:54:53.024Z,11.31
2023-01-11T19:57:35.331Z,11.34
2023-01-11T20:00:25.073Z,11.27
2023-01-11T20:03:07.552Z,11.27
2023-01-11T20:05:55.920Z,11.15
2023-01-11T20:08:39.582Z,11.05
2023-01-11T20:11:27.986Z,11.20
2023-01-11T20:14:17.006Z,11.26
2023-01-11T20:16:59.233Z,11.22
2023-01-11T20:19:47.954Z,11.11
2023-01-11T20:22:30.640Z,10.93
2023-01-11T20:25:20.930Z,11.04
2023-01-11T20:28:09.889Z,10.93
2023-01-11T20:31:06.951Z,11.09
2023-01-11T20:33:56.012Z,10.91
2023-01-11T20:36:38.272Z,10.88
2023-01-11T20:39:26.956Z,10.85
2023-01-11T20:42:09.945Z,11.06
2023-01-11T20:44:58.915Z,11.17
2023-01-11T20:47:47.841Z,11.24
2023-01-11T20:50:30.213Z,11.21
2023-01-11T20:53:18.922Z,11.18
2023-01-11T20:56:05.196Z,11.31
2023-01-11T20:58:58.905Z,11.54
2023-01-11T21:01:41.643Z,11.23
2023-01-11T21:04:32.965Z,11.02
2023-01-11T21:07:21.410Z,10.93
2023-01-11T21:10:03.290Z,11.12
2023-01-11T21:12:53.693Z,10.94
2023-01-11T21:15:36.882Z,11.11
2023-01-11T21:18:25.835Z,11.21
2023-01-11T21:21:08.268Z,11.19
2023-01-11T21:23:56.976Z,11.15
2023-01-11T21:26:40.280Z,11.07
2023-01-11T21:29:29.004Z,10.92
2023-01-11T21:32:17.235Z,11.00
2023-01-11T21:34:59.118Z,10.96
2023-01-11T21:37:47.187Z,10.81
2023-01-11T21:40:28.923Z,10.72
2023-01-11T21:43:21.900Z,10.65
2023-01-11T21:46:04.410Z,10.85
2023-01-11T21:48:52.806Z,10.95
2023-01-11T21:51:35.622Z,10.85
2023-01-11T21:54:26.923Z,11.05
2023-01-11T21:57:09.276Z,11.07
2023-01-11T21:59:58.003Z,10.85
2023-01-11T22:02:47.348Z,11.09
2023-01-11T22:05:35.955Z,11.40
2023-01-11T22:08:18.316Z,11.08
2023-01-11T22:11:07.991Z,11.00
2023-01-11T22:13:51.258Z,10.89
2023-01-11T22:16:41.111Z,10.90
2023-01-11T22:19:23.282Z,10.87
2023-01-11T22:22:11.950Z,10.71
2023-01-11T22:24:54.388Z,10.55
2023-01-11T22:27:42.930Z,10.59
2023-01-11T22:30:25.250Z,10.61
2023-01-11T22:33:14.966Z,10.70
2023-01-11T22:36:06.222Z,11.01
2023-01-11T22:38:54.857Z,10.66
2023-01-11T22:41:43.906Z,10.62
2023-01-11T22:44:26.081Z,10.52
2023-01-11T22:47:07.952Z,10.53
2023-01-11T22:49:54.967Z,10.42
2023-01-11T22:52:43.999Z,10.60
2023-01-11T22:55:26.184Z,10.61
2023-01-11T22:58:14.950Z,10.79
2023-01-11T23:00:57.207Z,10.77
2023-01-11T23:03:47.041Z,10.60
2023-01-11T23:06:34.326Z,10.60
2023-01-11T23:09:23.933Z,10.47
2023-01-11T23:12:24.695Z,10.42
2023-01-11T23:15:13.930Z,10.35
2023-01-11T23:17:56.323Z,10.39
2023-01-11T23:20:44.928Z,10.52
2023-01-11T23:23:27.251Z,10.52
2023-01-11T23:26:15.790Z,10.58
2023-01-11T23:28:58.152Z,10.52
2023-01-11T23:31:52.994Z,10.50
2023-01-11T23:34:35.155Z,10.54
2023-01-11T23:37:24.328Z,10.56
2023-01-11T23:40:13.273Z,10.64
2023-01-11T23:42:55.025Z,10.86
2023-01-11T23:45:38.712Z,10.69
2023-01-11T23:48:27.870Z,10.64
2023-01-11T23:51:10.159Z,10.62
2023-01-11T23:53:58.963Z,10.57
2023-01-11T23:56:41.392Z,10.68
2023-01-11T23:59:30.037Z,10.49
